Time;durP1;ratioP1;P1;durP2;ratioP2;P2;SDS_P1;SDS_P2;PMS_P1;PMS_P2;Temp;Humidity;BMP_temperature;BMP_pressure;BME280_temperature;BME280_humidity;BME280_pressure;Samples;Min_cycle;Max_cycle;Signal;HPM_P1;HPM_P2
2022/10/12 00:01:34;;;;;;;13.57;5.13;;;;;;;;;;5043538;28;20904;-83
2022/10/12 00:04:02;;;;;;;9.55;5.03;;;;;;;;;;5034269;28;20056;-84
2022/10/12 00:06:34;;;;;;;9.57;4.93;;;;;;;;;;5017724;28;20064;-84
2022/10/12 00:09:05;;;;;;;12.98;5.22;;;;;;;;;;5035500;28;20087;-83
2022/10/12 00:11:34;;;;;;;11.00;4.55;;;;;;;;;;5032762;28;20083;-83
2022/10/12 00:14:02;;;;;;;11.85;5.20;;;;;;;;;;5036824;28;20128;-83
2022/10/12 00:16:36;;;;;;;8.48;4.75;;;;;;;;;;5004646;28;20148;-83
2022/10/12 00:19:03;;;;;;;13.00;5.18;;;;;;;;;;5052663;28;20130;-83
2022/10/12 00:21:32;;;;;;;9.80;4.25;;;;;;;;;;5044554;28;20132;-83
2022/10/12 00:29:08;;;;;;;9.27;4.00;;;;;;;;;;5096341;28;20055;-83
2022/10/12 00:31:39;;;;;;;11.18;4.88;;;;;;;;;;5075261;28;20052;-84
2022/10/12 00:34:10;;;;;;;9.70;4.20;;;;;;;;;;5076247;28;20055;-83
2022/10/12 00:36:56;;;;;;;6.90;4.05;;;;;;;;;;5072870;28;20052;-84
2022/10/12 00:39:42;;;;;;;8.35;3.92;;;;;;;;;;5091836;28;20048;-83
2022/10/12 00:43:27;;;;;;;9.20;4.10;;;;;;;;;;5078356;28;20618;-83
2022/10/12 00:46:05;;;;;;;8.68;3.95;;;;;;;;;;5058592;28;20103;-83
2022/10/12 00:48:34;;;;;;;9.10;4.07;;;;;;;;;;5039429;28;20567;-83
2022/10/12 00:51:03;;;;;;;10.25;3.90;;;;;;;;;;5069650;28;20052;-84
2022/10/12 00:53:44;;;;;;;7.97;3.92;;;;;;;;;;5092159;28;20052;-84
2022/10/12 00:56:34;;;;;;;9.15;3.60;;;;;;;;;;5060180;28;20055;-84
2022/10/12 00:59:16;;;;;;;7.68;3.40;;;;;;;;;;5072818;28;20089;-83
2022/10/12 01:01:59;;;;;;;9.27;3.45;;;;;;;;;;5093740;28;20052;-84
2022/10/12 01:04:35;;;;;;;7.97;3.35;;;;;;;;;;5076410;28;20056;-83
2022/10/12 01:07:04;;;;;;;7.07;4.00;;;;;;;;;;5054984;28;20148;-83
2022/10/12 01:09:36;;;;;;;9.45;3.72;;;;;;;;;;5089101;28;20060;-83
2022/10/12 01:12:22;;;;;;;7.35;3.30;;;;;;;;;;5076082;28;20056;-83
2022/10/12 01:15:11;;;;;;;7.57;3.75;;;;;;;;;;5047853;28;20055;-83
2022/10/12 01:18:06;;;;;;;9.15;3.35;;;;;;;;;;5100206;28;20117;-82
2022/10/12 01:20:46;;;;;;;9.05;3.50;;;;;;;;;;5101514;28;20043;-82
2022/10/12 01:23:26;;;;;;;8.88;3.65;;;;;;;;;;5094749;28;20047;-83
2022/10/12 01:27:42;;;;;;;6.93;3.38;;;;;;;;;;5072569;28;20044;-83
2022/10/12 01:31:32;;;;;;;8.15;3.55;;;;;;;;;;5075924;28;20048;-84
2022/10/12 01:43:46;;;;;;;5.78;2.97;;;;;;;;;;5042700;28;20049;-83
2022/10/12 01:46:13;;;;;;;8.38;3.00;;;;;;;;;;5030674;28;20231;-83
2022/10/12 01:48:52;;;;;;;8.52;3.75;;;;;;;;;;5047223;28;20095;-83
2022/10/12 01:51:59;;;;;;;6.65;3.28;;;;;;;;;;5041233;28;20045;-83
2022/10/12 01:55:07;;;;;;;7.85;3.17;;;;;;;;;;5051650;28;20053;-83
2022/10/12 01:58:20;;;;;;;6.45;2.88;;;;;;;;;;5046421;28;20045;-83
2022/10/12 02:01:23;;;;;;;6.85;2.97;;;;;;;;;;5049391;28;20083;-84
2022/10/12 02:04:21;;;;;;;10.60;3.55;;;;;;;;;;5024170;28;20066;-82
2022/10/12 02:07:05;;;;;;;6.57;3.30;;;;;;;;;;5018894;28;20233;-82
2022/10/12 02:09:34;;;;;;;8.68;3.03;;;;;;;;;;5022764;28;20054;-82
2022/10/12 02:12:23;;;;;;;9.18;3.35;;;;;;;;;;5042403;28;20681;-83
2022/10/12 02:15:01;;;;;;;6.03;2.95;;;;;;;;;;5051232;28;20060;-83
2022/10/12 02:18:15;;;;;;;6.03;3.28;;;;;;;;;;5048194;28;20052;-83
2022/10/12 02:21:11;;;;;;;6.15;2.67;;;;;;;;;;5035712;28;20432;-83
2022/10/12 02:24:01;;;;;;;7.53;3.00;;;;;;;;;;5033307;28;20060;-83
2022/10/12 02:26:41;;;;;;;6.95;3.10;;;;;;;;;;5041579;28;20131;-84
2022/10/12 02:29:35;;;;;;;11.15;3.40;;;;;;;;;;5020244;28;20049;-83
2022/10/12 02:32:27;;;;;;;6.03;3.40;;;;;;;;;;5036189;28;20052;-84
2022/10/12 02:35:35;;;;;;;7.20;3.13;;;;;;;;;;5072041;28;20060;-83
2022/10/12 02:38:42;;;;;;;5.63;3.00;;;;;;;;;;5090627;28;20059;-82
2022/10/12 02:44:45;;;;;;;6.00;2.92;;;;;;;;;;5027921;28;20159;-83
2022/10/12 02:47:35;;;;;;;17.33;3.17;;;;;;;;;;5041403;28;20118;-84
2022/10/12 02:50:31;;;;;;;5.07;2.88;;;;;;;;;;5035649;28;20619;-82
2022/10/12 02:53:11;;;;;;;8.60;3.08;;;;;;;;;;5048787;28;20060;-84
2022/10/12 02:56:05;;;;;;;8.18;3.17;;;;;;;;;;5034817;28;20049;-84
2022/10/12 02:58:58;;;;;;;4.75;2.60;;;;;;;;;;5045865;28;20045;-83
2022/10/12 03:01:32;;;;;;;6.82;3.05;;;;;;;;;;5055856;28;20108;-83
2022/10/12 03:04:18;;;;;;;7.82;3.35;;;;;;;;;;5039790;28;20051;-83
2022/10/12 03:06:52;;;;;;;7.78;3.60;;;;;;;;;;5034020;28;20064;-83
2022/10/12 03:09:46;;;;;;;7.43;3.00;;;;;;;;;;5056133;28;20041;-82
2022/10/12 03:12:18;;;;;;;6.93;3.08;;;;;;;;;;5049643;28;20079;-84
2022/10/12 03:14:53;;;;;;;5.57;2.88;;;;;;;;;;5054249;28;20061;-84
2022/10/12 03:17:22;;;;;;;8.45;3.05;;;;;;;;;;5074171;28;20531;-84
2022/10/12 03:19:52;;;;;;;7.57;2.83;;;;;;;;;;5076323;28;20119;-84
2022/10/12 03:22:24;;;;;;;6.47;2.95;;;;;;;;;;5080086;28;20048;-84
2022/10/12 03:25:16;;;;;;;6.35;2.75;;;;;;;;;;5072751;28;20032;-83
2022/10/12 03:29:13;;;;;;;7.15;2.55;;;;;;;;;;5041330;28;20132;-83
2022/10/12 03:31:56;;;;;;;7.28;2.60;;;;;;;;;;5064268;28;20063;-84
2022/10/12 03:34:43;;;;;;;7.85;3.08;;;;;;;;;;5061214;28;20106;-84
2022/10/12 03:37:18;;;;;;;6.65;3.00;;;;;;;;;;5103861;28;20089;-82
2022/10/12 03:40:05;;;;;;;5.85;2.90;;;;;;;;;;5078630;28;20052;-85
2022/10/12 03:43:07;;;;;;;5.72;2.90;;;;;;;;;;5060551;28;20080;-84
2022/10/12 03:45:48;;;;;;;10.40;3.15;;;;;;;;;;5053797;28;20074;-83
2022/10/12 03:48:40;;;;;;;6.80;2.63;;;;;;;;;;5066494;28;20112;-84
2022/10/12 03:51:08;;;;;;;7.93;2.67;;;;;;;;;;5075334;28;20389;-82
2022/10/12 03:53:36;;;;;;;9.00;3.63;;;;;;;;;;5082058;28;20132;-83
2022/10/12 03:56:18;;;;;;;5.47;3.17;;;;;;;;;;5107900;28;20111;-82
2022/10/12 03:58:46;;;;;;;6.18;3.20;;;;;;;;;;5108237;28;20070;-82
2022/10/12 04:01:31;;;;;;;7.75;3.00;;;;;;;;;;5108630;28;20055;-82
2022/10/12 04:04:23;;;;;;;6.55;3.10;;;;;;;;;;5080203;28;20134;-84
2022/10/12 04:07:30;;;;;;;10.23;3.45;;;;;;;;;;5096723;28;20049;-84
2022/10/12 04:10:03;;;;;;;9.70;3.05;;;;;;;;;;5075285;28;20054;-84
2022/10/12 04:12:56;;;;;;;7.90;2.97;;;;;;;;;;5079103;28;20051;-83
2022/10/12 04:15:44;;;;;;;7.22;3.25;;;;;;;;;;5075889;28;20547;-84
2022/10/12 04:18:30;;;;;;;6.75;2.70;;;;;;;;;;5076418;28;20071;-83
2022/10/12 04:21:14;;;;;;;7.13;2.90;;;;;;;;;;5062640;28;20067;-84
2022/10/12 04:23:55;;;;;;;7.07;3.15;;;;;;;;;;5012721;28;20047;-83
2022/10/12 04:26:39;;;;;;;6.15;2.55;;;;;;;;;;5089624;28;20046;-84
2022/10/12 04:30:23;;;;;;;6.95;2.53;;;;;;;;;;5067623;28;20104;-84
2022/10/12 04:33:04;;;;;;;6.60;2.60;;;;;;;;;;5060274;28;20059;-84
2022/10/12 04:35:44;;;;;;;9.40;3.30;;;;;;;;;;5074499;28;20145;-84
2022/10/12 04:43:55;;;;;;;6.97;2.67;;;;;;;;;;5002263;28;20132;-84
2022/10/12 04:46:36;;;;;;;7.20;2.75;;;;;;;;;;4994016;28;20053;-84
2022/10/12 04:49:59;;;;;;;9.60;2.75;;;;;;;;;;5022693;28;20089;-83
2022/10/12 04:53:25;;;;;;;6.35;2.58;;;;;;;;;;4996475;28;20432;-84
2022/10/12 04:56:53;;;;;;;8.23;2.80;;;;;;;;;;5001448;28;20546;-83
2022/10/12 04:59:38;;;;;;;5.82;2.47;;;;;;;;;;4957103;28;20052;-83
2022/10/12 05:03:01;;;;;;;6.90;2.53;;;;;;;;;;4964430;28;20051;-85
2022/10/12 05:05:36;;;;;;;9.70;3.05;;;;;;;;;;4959671;28;20051;-82
2022/10/12 05:08:05;;;;;;;7.93;2.53;;;;;;;;;;4947319;29;20055;-83
2022/10/12 05:10:33;;;;;;;6.90;2.78;;;;;;;;;;4999930;28;20070;-82
2022/10/12 05:13:05;;;;;;;6.07;2.72;;;;;;;;;;5003300;28;20469;-82
2022/10/12 05:17:10;;;;;;;12.52;3.10;;;;;;;;;;4887471;29;20148;-83
2022/10/12 05:19:52;;;;;;;5.50;2.53;;;;;;;;;;4820972;29;20054;-82
2022/10/12 05:22:19;;;;;;;8.60;2.53;;;;;;;;;;4851367;29;20057;-82
2022/10/12 05:24:48;;;;;;;7.95;2.40;;;;;;;;;;4872017;29;20136;-82
2022/10/12 05:28:11;;;;;;;5.05;2.28;;;;;;;;;;4878193;29;20063;-83
2022/10/12 05:30:51;;;;;;;7.95;2.88;;;;;;;;;;4878051;29;20059;-82
2022/10/12 05:33:25;;;;;;;5.65;2.50;;;;;;;;;;4897451;29;20052;-82
2022/10/12 05:35:57;;;;;;;13.23;3.10;;;;;;;;;;4908960;29;20140;-82
2022/10/12 05:38:33;;;;;;;4.93;2.60;;;;;;;;;;4905622;29;20081;-82
2022/10/12 05:41:50;;;;;;;7.35;3.17;;;;;;;;;;4907776;29;20558;-82
2022/10/12 05:44:20;;;;;;;6.25;2.85;;;;;;;;;;4905906;29;20147;-83
2022/10/12 05:47:02;;;;;;;11.60;2.92;;;;;;;;;;4939542;28;20111;-83
2022/10/12 05:49:30;;;;;;;5.35;2.30;;;;;;;;;;4947154;28;20285;-82
2022/10/12 05:52:23;;;;;;;7.22;2.53;;;;;;;;;;4968605;28;20047;-82
2022/10/12 05:54:51;;;;;;;7.00;2.72;;;;;;;;;;4978072;28;20110;-82
2022/10/12 05:57:37;;;;;;;5.00;2.60;;;;;;;;;;5034765;28;20091;-82
2022/10/12 06:00:07;;;;;;;5.18;2.58;;;;;;;;;;5045968;28;20049;-82
2022/10/12 06:03:58;;;;;;;12.10;3.47;;;;;;;;;;4998054;28;20049;-83
2022/10/12 06:06:52;;;;;;;6.78;2.45;;;;;;;;;;5018876;28;20620;-82
2022/10/12 06:09:34;;;;;;;9.20;2.90;;;;;;;;;;4985487;28;20082;-82
2022/10/12 06:12:02;;;;;;;8.80;3.10;;;;;;;;;;5007326;28;20145;-82
2022/10/12 06:14:37;;;;;;;8.05;2.60;;;;;;;;;;5016612;28;20076;-81
2022/10/12 06:17:37;;;;;;;8.07;2.78;;;;;;;;;;5021493;28;20045;-82
2022/10/12 06:20:26;;;;;;;7.70;3.10;;;;;;;;;;4990151;28;20062;-85
2022/10/12 06:23:04;;;;;;;10.30;2.95;;;;;;;;;;5018401;28;20121;-82
2022/10/12 06:25:33;;;;;;;8.43;2.53;;;;;;;;;;5016408;28;20046;-82
2022/10/12 06:28:25;;;;;;;7.95;2.78;;;;;;;;;;5018705;28;20045;-82
2022/10/12 06:30:55;;;;;;;8.30;2.60;;;;;;;;;;5019555;28;20551;-82
2022/10/12 06:34:18;;;;;;;5.28;2.67;;;;;;;;;;4992544;28;20050;-84
2022/10/12 06:37:44;;;;;;;8.18;2.95;;;;;;;;;;5004221;28;20046;-84
2022/10/12 06:40:53;;;;;;;6.90;3.10;;;;;;;;;;4991751;28;20144;-84
2022/10/12 06:44:00;;;;;;;7.50;3.00;;;;;;;;;;5044712;28;20081;-83
2022/10/12 06:47:41;;;;;;;6.63;2.63;;;;;;;;;;5071008;28;20048;-84
2022/10/12 06:50:33;;;;;;;8.35;2.60;;;;;;;;;;5083146;28;20043;-84
2022/10/12 06:53:40;;;;;;;12.18;3.45;;;;;;;;;;5070923;28;20052;-84
2022/10/12 06:56:53;;;;;;;7.82;3.20;;;;;;;;;;5072534;28;20063;-84
2022/10/12 06:59:50;;;;;;;7.53;3.60;;;;;;;;;;5044964;28;20516;-82
2022/10/12 07:02:18;;;;;;;8.43;3.50;;;;;;;;;;5070274;28;20040;-82
2022/10/12 07:05:00;;;;;;;8.43;3.70;;;;;;;;;;5035687;28;20102;-82
2022/10/12 07:07:36;;;;;;;10.68;3.40;;;;;;;;;;5087826;28;20040;-82
2022/10/12 07:10:05;;;;;;;8.30;3.97;;;;;;;;;;5071366;28;20467;-82
2022/10/12 07:13:31;;;;;;;9.75;3.88;;;;;;;;;;5088891;28;20043;-85
2022/10/12 07:16:24;;;;;;;8.80;3.47;;;;;;;;;;5031729;28;20594;-84
2022/10/12 07:19:06;;;;;;;11.85;3.65;;;;;;;;;;5015470;28;20398;-84
2022/10/12 07:22:13;;;;;;;13.63;4.15;;;;;;;;;;5017949;28;20412;-82
2022/10/12 07:25:06;;;;;;;9.43;3.60;;;;;;;;;;5051692;28;20140;-82
2022/10/12 07:27:57;;;;;;;12.02;3.60;;;;;;;;;;5049852;28;20052;-82
2022/10/12 07:30:30;;;;;;;10.55;3.75;;;;;;;;;;5051616;28;20052;-82
2022/10/12 07:33:26;;;;;;;8.63;3.65;;;;;;;;;;5046992;28;20041;-82
2022/10/12 07:35:54;;;;;;;9.50;3.45;;;;;;;;;;5050634;28;20073;-82
2022/10/12 07:38:44;;;;;;;18.67;3.53;;;;;;;;;;5038505;28;20252;-81
2022/10/12 07:41:18;;;;;;;14.90;3.53;;;;;;;;;;5037160;28;20075;-82
2022/10/12 07:44:10;;;;;;;15.70;3.80;;;;;;;;;;5022186;28;20046;-82
2022/10/12 07:46:44;;;;;;;10.85;3.38;;;;;;;;;;5047739;28;20170;-82
2022/10/12 07:49:36;;;;;;;13.38;3.60;;;;;;;;;;5095550;28;20506;-82
2022/10/12 07:52:12;;;;;;;6.88;3.05;;;;;;;;;;5087157;28;20032;-82
2022/10/12 07:54:40;;;;;;;9.90;3.22;;;;;;;;;;5080143;28;20199;-82
2022/10/12 07:57:08;;;;;;;9.82;3.20;;;;;;;;;;5072878;28;20520;-82
2022/10/12 07:59:42;;;;;;;13.57;2.90;;;;;;;;;;5096829;28;20113;-81
2022/10/12 08:02:11;;;;;;;12.48;3.33;;;;;;;;;;5097967;28;20044;-82
2022/10/12 08:04:39;;;;;;;10.35;3.15;;;;;;;;;;5101297;28;20051;-81
2022/10/12 08:07:07;;;;;;;12.25;3.30;;;;;;;;;;5100808;28;20044;-82
2022/10/12 08:09:35;;;;;;;11.02;3.53;;;;;;;;;;5097790;28;20052;-81
2022/10/12 08:12:04;;;;;;;15.02;3.03;;;;;;;;;;5084190;28;20036;-83
2022/10/12 08:14:37;;;;;;;12.55;3.63;;;;;;;;;;5103822;28;20074;-81
2022/10/12 08:17:04;;;;;;;12.77;2.85;;;;;;;;;;5074619;28;20044;-82
2022/10/12 08:19:38;;;;;;;15.30;3.17;;;;;;;;;;5099879;28;20056;-82
2022/10/12 08:22:12;;;;;;;15.05;3.88;;;;;;;;;;5099613;28;20055;-82
2022/10/12 08:24:41;;;;;;;10.80;2.53;;;;;;;;;;5066222;28;20047;-82
2022/10/12 08:27:17;;;;;;;12.32;2.67;;;;;;;;;;5081049;28;20912;-81
2022/10/12 08:29:46;;;;;;;12.48;3.00;;;;;;;;;;5081085;28;20048;-82
2022/10/12 08:32:20;;;;;;;14.05;2.60;;;;;;;;;;5087408;28;20047;-82
2022/10/12 08:34:49;;;;;;;11.57;3.03;;;;;;;;;;5060463;28;20059;-82
2022/10/12 08:37:19;;;;;;;10.25;2.72;;;;;;;;;;5099654;28;20514;-83
2022/10/12 08:41:12;;;;;;;16.25;3.00;;;;;;;;;;5055258;28;20040;-84
2022/10/12 08:45:05;;;;;;;12.30;2.88;;;;;;;;;;5088171;28;20048;-84
2022/10/12 08:49:04;;;;;;;8.52;2.47;;;;;;;;;;5089285;28;20056;-84
2022/10/12 08:53:16;;;;;;;33.55;11.70;;;;;;;;;;5075029;28;20055;-86
2022/10/12 09:02:22;;;;;;;9.13;2.95;;;;;;;;;;5002909;28;20076;-84
2022/10/12 09:05:27;;;;;;;17.25;3.20;;;;;;;;;;4985478;28;20058;-83
2022/10/12 09:09:46;;;;;;;19.63;5.90;;;;;;;;;;5000242;28;20046;-83
2022/10/12 09:14:03;;;;;;;8.38;1.90;;;;;;;;;;4967311;28;20110;-83
2022/10/12 09:18:16;;;;;;;12.93;2.45;;;;;;;;;;4968746;28;20957;-86
2022/10/12 09:22:33;;;;;;;14.75;3.25;;;;;;;;;;4969512;28;20034;-86
2022/10/12 09:27:13;;;;;;;9.10;1.80;;;;;;;;;;4902422;29;20044;-85
2022/10/12 09:31:09;;;;;;;11.38;2.17;;;;;;;;;;4948141;28;20070;-86
2022/10/12 09:35:41;;;;;;;20.83;5.10;;;;;;;;;;4948467;28;20061;-86
2022/10/12 09:48:25;;;;;;;13.30;2.22;;;;;;;;;;4932796;29;20043;-82
2022/10/12 10:09:33;;;;;;;13.32;3.70;;;;;;;;;;4939195;28;20499;-83
2022/10/12 10:12:24;;;;;;;10.05;2.80;;;;;;;;;;4954982;28;20066;-83
2022/10/12 11:10:53;;;;;;;5.40;1.40;;;;;;;;;;5083445;28;20044;-85
2022/10/12 11:15:21;;;;;;;5.18;1.20;;;;;;;;;;5024017;28;20041;-86
2022/10/12 11:19:44;;;;;;;7.68;1.30;;;;;;;;;;5045928;28;20996;-86
2022/10/12 11:24:19;;;;;;;6.68;1.38;;;;;;;;;;5046463;28;20037;-85
2022/10/12 11:28:37;;;;;;;12.82;1.65;;;;;;;;;;4980662;28;20050;-85
2022/10/12 11:32:22;;;;;;;7.45;1.63;;;;;;;;;;4981286;28;20050;-85
2022/10/12 11:36:26;;;;;;;4.18;1.33;;;;;;;;;;4949982;28;20047;-85
2022/10/12 11:40:28;;;;;;;8.00;1.30;;;;;;;;;;4951421;28;20611;-85
2022/10/12 11:44:38;;;;;;;4.80;1.60;;;;;;;;;;4949374;28;20051;-84
2022/10/12 11:49:31;;;;;;;8.43;1.50;;;;;;;;;;4981812;28;20050;-84
2022/10/12 11:54:08;;;;;;;8.23;1.30;;;;;;;;;;4984889;28;20527;-85
2022/10/12 11:58:18;;;;;;;4.15;1.17;;;;;;;;;;4918779;29;20054;-84
2022/10/12 15:39:51;;;;;;;7.00;1.80;;;;;;;;;;5090142;28;20052;-84
2022/10/12 15:48:42;;;;;;;6.03;1.20;;;;;;;;;;5110160;28;20035;-85
2022/10/12 15:52:17;;;;;;;8.32;1.52;;;;;;;;;;5114167;28;20138;-83
2022/10/12 15:56:45;;;;;;;8.73;1.50;;;;;;;;;;5114593;28;20040;-84
2022/10/12 16:01:04;;;;;;;4.40;1.30;;;;;;;;;;5102343;28;20101;-84
2022/10/12 16:15:02;;;;;;;3.95;1.60;;;;;;;;;;4935207;28;20140;-87
2022/10/12 16:24:29;;;;;;;8.15;1.63;;;;;;;;;;4858483;29;20154;-87
2022/10/12 16:29:19;;;;;;;8.52;2.40;;;;;;;;;;4881704;29;20049;-85
2022/10/12 16:47:45;;;;;;;3.97;1.20;;;;;;;;;;4846412;29;20568;-86
2022/10/12 16:52:19;;;;;;;5.72;1.80;;;;;;;;;;4820665;29;20182;-84
2022/10/12 17:01:40;;;;;;;5.10;1.73;;;;;;;;;;4837939;29;20644;-84
2022/10/12 17:05:59;;;;;;;9.45;2.13;;;;;;;;;;4837268;29;20100;-84
2022/10/12 17:10:23;;;;;;;9.52;2.15;;;;;;;;;;4885529;29;20539;-83
2022/10/12 17:14:21;;;;;;;;;;;;;;;;;;4946325;28;20066;-83
2022/10/12 17:18:46;;;;;;;6.38;2.17;;;;;;;;;;4949790;29;19950;-84
2022/10/12 17:23:00;;;;;;;8.10;2.50;;;;;;;;;;4974823;28;20172;-83
2022/10/12 18:04:20;;;;;;;9.63;2.45;;;;;;;;;;5019409;28;20076;-84
2022/10/12 18:08:20;;;;;;;8.13;3.03;;;;;;;;;;5007342;28;20041;-85
2022/10/12 18:11:24;;;;;;;5.43;2.33;;;;;;;;;;4994344;28;20054;-82
2022/10/12 18:14:35;;;;;;;6.28;2.65;;;;;;;;;;5000401;28;20107;-83
2022/10/12 18:36:54;;;;;;;6.32;3.40;;;;;;;;;;5030922;28;20052;-84
2022/10/12 18:41:03;;;;;;;8.13;2.65;;;;;;;;;;5000723;28;20104;-85
2022/10/12 18:44:07;;;;;;;9.27;3.15;;;;;;;;;;4990752;28;20058;-83
2022/10/12 18:46:50;;;;;;;6.40;2.88;;;;;;;;;;4996052;28;20046;-83
2022/10/12 18:49:43;;;;;;;9.55;3.05;;;;;;;;;;5005995;28;20054;-83
2022/10/12 18:52:19;;;;;;;8.75;2.75;;;;;;;;;;4992884;28;20077;-82
2022/10/12 18:55:06;;;;;;;8.30;2.55;;;;;;;;;;5007214;28;20601;-82
2022/10/12 18:57:55;;;;;;;11.68;2.78;;;;;;;;;;4989063;28;20046;-83
2022/10/12 19:06:08;;;;;;;6.10;2.83;;;;;;;;;;5046468;28;20134;-84
2022/10/12 19:10:44;;;;;;;6.63;2.88;;;;;;;;;;4966197;28;20047;-85
2022/10/12 19:15:20;;;;;;;7.88;2.75;;;;;;;;;;4869832;29;20049;-85
2022/10/12 19:19:37;;;;;;;9.68;3.17;;;;;;;;;;4852371;29;20053;-85
2022/10/12 19:23:12;;;;;;;8.52;3.03;;;;;;;;;;4859479;29;20065;-84
2022/10/12 19:26:24;;;;;;;7.30;2.78;;;;;;;;;;4817769;29;20145;-85
2022/10/12 19:29:32;;;;;;;6.65;3.05;;;;;;;;;;4824972;29;20949;-83
2022/10/12 19:32:13;;;;;;;8.60;3.00;;;;;;;;;;4824010;29;20058;-83
2022/10/12 19:34:44;;;;;;;7.25;3.35;;;;;;;;;;4814894;29;20053;-82
2022/10/12 19:37:38;;;;;;;8.20;2.85;;;;;;;;;;4831766;29;20165;-82
2022/10/12 19:40:10;;;;;;;6.32;3.08;;;;;;;;;;4859032;29;20053;-83
2022/10/12 19:42:38;;;;;;;6.50;3.10;;;;;;;;;;4867409;29;20175;-82
2022/10/12 19:45:06;;;;;;;6.80;3.03;;;;;;;;;;4966291;28;20099;-82
2022/10/12 19:47:34;;;;;;;8.25;3.00;;;;;;;;;;4995317;28;20050;-82
2022/10/12 19:50:11;;;;;;;5.95;3.05;;;;;;;;;;4977014;28;20050;-82
2022/10/12 19:52:39;;;;;;;10.07;2.85;;;;;;;;;;4995786;28;20549;-83
2022/10/12 19:55:08;;;;;;;5.82;2.60;;;;;;;;;;4996024;28;20050;-82
2022/10/12 19:57:41;;;;;;;8.20;3.10;;;;;;;;;;5033656;28;20131;-82
2022/10/12 20:00:10;;;;;;;8.70;3.20;;;;;;;;;;5052396;28;20083;-83
2022/10/12 20:02:48;;;;;;;7.72;3.60;;;;;;;;;;5090896;28;20050;-83
2022/10/12 20:05:16;;;;;;;15.75;3.80;;;;;;;;;;5116621;28;20131;-83
2022/10/12 20:07:44;;;;;;;8.13;3.45;;;;;;;;;;5116893;28;20066;-82
2022/10/12 20:10:11;;;;;;;7.70;3.15;;;;;;;;;;5099258;28;20055;-83
2022/10/12 20:12:40;;;;;;;6.60;3.10;;;;;;;;;;5082780;28;20051;-82
2022/10/12 20:15:08;;;;;;;8.05;3.30;;;;;;;;;;5104172;28;20482;-82
2022/10/12 20:17:36;;;;;;;8.07;3.35;;;;;;;;;;5120233;28;20047;-82
2022/10/12 20:20:05;;;;;;;11.70;4.28;;;;;;;;;;5105854;28;20074;-83
2022/10/12 20:22:57;;;;;;;11.40;3.95;;;;;;;;;;5119927;28;20043;-82
2022/10/12 20:25:26;;;;;;;10.73;3.42;;;;;;;;;;5117948;28;20444;-82
2022/10/12 20:27:54;;;;;;;10.57;3.33;;;;;;;;;;5122912;28;20089;-82
2022/10/12 20:30:23;;;;;;;6.28;3.10;;;;;;;;;;5123486;28;20066;-82
2022/10/12 20:32:55;;;;;;;7.75;3.30;;;;;;;;;;5118322;28;20059;-82
2022/10/12 20:35:26;;;;;;;7.20;3.28;;;;;;;;;;5121551;28;20051;-81
2022/10/12 20:37:54;;;;;;;12.93;4.10;;;;;;;;;;5090336;28;20081;-82
2022/10/12 20:40:22;;;;;;;12.93;3.42;;;;;;;;;;5120593;28;21347;-81
2022/10/12 20:42:50;;;;;;;8.88;3.30;;;;;;;;;;5119409;28;20043;-82
2022/10/12 20:45:41;;;;;;;7.30;2.95;;;;;;;;;;5118197;28;20046;-82
2022/10/12 20:48:10;;;;;;;9.45;3.13;;;;;;;;;;5114248;27;20047;-82
2022/10/12 20:50:38;;;;;;;7.22;3.35;;;;;;;;;;5100882;28;20044;-82
2022/10/12 20:53:30;;;;;;;7.28;2.95;;;;;;;;;;5120296;28;20185;-81
2022/10/12 20:55:57;;;;;;;6.90;3.08;;;;;;;;;;5110807;28;20086;-81
2022/10/12 20:58:26;;;;;;;8.15;3.38;;;;;;;;;;5099213;28;20040;-82
2022/10/12 21:01:09;;;;;;;9.63;3.47;;;;;;;;;;5083360;28;20074;-83
2022/10/12 21:03:38;;;;;;;7.93;3.00;;;;;;;;;;5114141;28;20048;-83
2022/10/12 21:06:37;;;;;;;9.50;3.10;;;;;;;;;;5115928;27;20039;-83
2022/10/12 21:09:15;;;;;;;6.15;2.88;;;;;;;;;;5096173;28;20059;-83
2022/10/12 21:11:54;;;;;;;10.45;3.33;;;;;;;;;;5067755;27;20093;-84
2022/10/12 21:14:36;;;;;;;8.68;3.42;;;;;;;;;;5097921;28;20047;-83
2022/10/12 21:17:53;;;;;;;7.05;3.58;;;;;;;;;;5112921;27;20645;-83
2022/10/12 21:20:24;;;;;;;8.77;3.08;;;;;;;;;;5124782;28;20069;-82
2022/10/12 21:22:51;;;;;;;10.07;3.70;;;;;;;;;;5112832;28;20471;-84
2022/10/12 21:25:20;;;;;;;11.00;3.50;;;;;;;;;;5110382;28;20059;-84
2022/10/12 21:28:02;;;;;;;7.85;3.00;;;;;;;;;;5111630;27;20048;-84
2022/10/12 21:34:42;;;;;;;5.90;2.88;;;;;;;;;;5046982;28;20056;-85
2022/10/12 21:37:48;;;;;;;8.88;3.05;;;;;;;;;;5052164;28;20612;-84
2022/10/12 21:40:32;;;;;;;11.27;3.13;;;;;;;;;;5030258;28;20448;-84
2022/10/12 21:43:13;;;;;;;10.20;3.00;;;;;;;;;;5021132;28;20055;-83
2022/10/12 21:45:50;;;;;;;9.60;3.08;;;;;;;;;;5017541;28;20426;-83
2022/10/12 21:48:57;;;;;;;8.30;3.05;;;;;;;;;;5045953;28;20118;-84
2022/10/12 21:52:23;;;;;;;7.35;3.00;;;;;;;;;;4991134;28;20092;-84
2022/10/12 21:55:05;;;;;;;7.68;3.45;;;;;;;;;;4997147;28;20073;-82
2022/10/12 21:57:58;;;;;;;7.00;3.20;;;;;;;;;;4997936;28;20054;-82
2022/10/12 22:00:30;;;;;;;6.65;3.10;;;;;;;;;;4998489;28;20118;-82
2022/10/12 22:08:49;;;;;;;9.27;2.85;;;;;;;;;;5045286;28;20053;-83
2022/10/12 22:11:18;;;;;;;8.32;3.10;;;;;;;;;;5050031;28;20118;-83
2022/10/12 22:13:46;;;;;;;9.32;3.92;;;;;;;;;;5048316;28;20826;-83
2022/10/12 22:16:16;;;;;;;6.20;3.15;;;;;;;;;;5043054;28;20057;-82
2022/10/12 22:18:44;;;;;;;9.02;3.35;;;;;;;;;;5032943;28;20138;-82
2022/10/12 22:21:18;;;;;;;11.02;3.33;;;;;;;;;;5031805;28;20457;-82
2022/10/12 22:23:46;;;;;;;6.47;4.03;;;;;;;;;;5086205;28;20052;-83
2022/10/12 22:26:16;;;;;;;7.93;3.15;;;;;;;;;;5113946;28;20052;-82
